createdAt,value
2023-01-29T00:00:45.118Z,24.63
2023-01-29T00:05:39.120Z,24.73
2023-01-29T00:10:31.748Z,24.05
2023-01-29T00:15:24.629Z,23.70
2023-01-29T00:20:19.543Z,22.58
2023-01-29T00:25:14.430Z,21.65
2023-01-29T00:30:20.392Z,20.45
2023-01-29T00:35:14.514Z,20.83
2023-01-29T00:40:10.819Z,20.15
2023-01-29T00:45:05.282Z,19.58
2023-01-29T00:49:58.478Z,20.10
2023-01-29T00:54:52.047Z,19.73
2023-01-29T00:59:46.387Z,19.85
2023-01-29T01:04:39.389Z,20.98
2023-01-29T01:09:51.552Z,24.58
2023-01-29T01:14:45.204Z,27.88
2023-01-29T01:19:39.390Z,27.95
2023-01-29T01:24:32.207Z,26.48
2023-01-29T01:29:26.076Z,27.00
2023-01-29T01:34:20.152Z,29.90
2023-01-29T01:39:12.675Z,25.95
2023-01-29T01:44:07.545Z,26.73
2023-01-29T01:49:21.721Z,24.35
2023-01-29T01:54:20.507Z,25.63
2023-01-29T02:04:31.584Z,25.98
2023-01-29T02:10:07.827Z,24.95
2023-01-29T02:15:01.364Z,23.73
2023-01-29T02:20:02.336Z,26.02
2023-01-29T02:24:57.337Z,25.17
2023-01-29T02:30:04.836Z,22.83
2023-01-29T02:35:27.341Z,22.88
2023-01-29T02:41:05.569Z,21.67
2023-01-29T02:46:03.337Z,22.35
2023-01-29T02:51:00.212Z,25.13
2023-01-29T02:55:59.573Z,22.23
2023-01-29T03:00:53.046Z,23.15
2023-01-29T03:06:08.643Z,25.33
2023-01-29T03:11:05.039Z,21.60
2023-01-29T03:16:05.316Z,21.67
2023-01-29T03:21:29.651Z,23.35
2023-01-29T03:26:42.080Z,22.88
2023-01-29T03:31:54.392Z,23.85
2023-01-29T03:36:58.433Z,21.42
2023-01-29T03:42:05.205Z,24.92
2023-01-29T03:47:04.735Z,24.20
2023-01-29T03:57:12.367Z,24.23
2023-01-29T04:02:19.838Z,24.20
2023-01-29T04:07:23.812Z,23.00
2023-01-29T04:12:32.327Z,26.27
2023-01-29T04:17:30.523Z,25.73
2023-01-29T04:22:38.977Z,21.75
2023-01-29T04:27:31.839Z,24.55
2023-01-29T04:33:16.510Z,23.23
2023-01-29T04:38:48.129Z,22.88
2023-01-29T04:44:05.080Z,23.88
2023-01-29T04:49:17.266Z,23.60
2023-01-29T04:54:57.150Z,23.50
2023-01-29T05:00:05.452Z,25.58
2023-01-29T05:05:00.155Z,24.00
2023-01-29T05:09:53.431Z,23.33
2023-01-29T05:14:47.547Z,22.08
2023-01-29T05:19:40.303Z,23.38
2023-01-29T05:24:33.284Z,21.88
2023-01-29T05:29:27.324Z,20.00
2023-01-29T05:34:21.109Z,20.88
2023-01-29T05:39:14.072Z,21.30
2023-01-29T05:44:08.447Z,23.55
2023-01-29T05:49:01.679Z,23.85
2023-01-29T05:53:55.603Z,24.98
2023-01-29T05:58:49.383Z,21.75
2023-01-29T06:03:42.984Z,23.98
2023-01-29T06:08:36.032Z,21.40
2023-01-29T06:13:29.764Z,22.73
2023-01-29T06:18:24.292Z,22.40
2023-01-29T06:23:16.718Z,23.30
2023-01-29T06:28:09.837Z,21.92
2023-01-29T06:33:03.850Z,19.80
2023-01-29T06:37:57.386Z,18.58
2023-01-29T06:42:50.115Z,19.98
2023-01-29T06:47:43.279Z,19.90
2023-01-29T06:52:35.904Z,20.27
2023-01-29T06:57:30.745Z,26.67
2023-01-29T07:02:24.606Z,27.83
2023-01-29T07:07:18.163Z,25.65
2023-01-29T07:12:12.395Z,22.58
2023-01-29T07:17:06.134Z,20.35
2023-01-29T07:22:03.205Z,20.52
2023-01-29T07:26:56.119Z,19.60
2023-01-29T07:31:49.750Z,23.75
2023-01-29T07:36:43.522Z,20.90
2023-01-29T07:41:38.459Z,21.70
2023-01-29T07:46:41.348Z,20.67
2023-01-29T07:51:35.879Z,23.70
2023-01-29T07:56:29.807Z,23.13
2023-01-29T08:01:23.286Z,26.02
2023-01-29T08:06:16.464Z,22.73
2023-01-29T08:11:10.927Z,30.17
2023-01-29T08:16:06.941Z,22.27
2023-01-29T08:21:21.968Z,27.25
2023-01-29T08:26:15.500Z,28.20
2023-01-29T08:31:17.676Z,24.02
2023-01-29T08:36:12.440Z,37.00
2023-01-29T08:41:05.757Z,24.88
2023-01-29T08:45:58.909Z,26.98
2023-01-29T08:50:53.105Z,26.30
2023-01-29T08:55:46.907Z,24.55
2023-01-29T09:00:40.219Z,23.25
2023-01-29T09:05:34.940Z,23.33
2023-01-29T09:10:28.459Z,24.02
2023-01-29T09:15:21.063Z,22.55
2023-01-29T09:20:13.808Z,20.75
2023-01-29T09:25:09.559Z,18.25
2023-01-29T09:30:02.673Z,18.95
2023-01-29T09:34:56.099Z,16.77
2023-01-29T09:39:50.154Z,17.77
2023-01-29T09:45:01.500Z,18.52
2023-01-29T09:49:58.808Z,17.95
2023-01-29T09:54:56.785Z,18.35
2023-01-29T10:04:54.445Z,18.10
2023-01-29T10:09:59.717Z,18.50
2023-01-29T10:14:58.548Z,17.67
2023-01-29T10:19:56.426Z,18.05
2023-01-29T10:24:56.499Z,17.48
2023-01-29T10:29:53.620Z,19.27
2023-01-29T10:34:54.947Z,18.90
2023-01-29T10:39:48.504Z,19.25
2023-01-29T10:44:50.770Z,17.45
2023-01-29T10:49:53.210Z,18.08
2023-01-29T10:55:14.571Z,20.80
2023-01-29T11:00:20.496Z,19.13
2023-01-29T11:05:22.040Z,19.70
2023-01-29T11:10:20.904Z,19.83
2023-01-29T11:15:24.772Z,19.20
2023-01-29T11:20:29.603Z,21.40
2023-01-29T11:25:24.502Z,21.23
2023-01-29T11:30:28.497Z,19.48
2023-01-29T11:35:23.563Z,20.67
2023-01-29T11:40:19.441Z,19.90
2023-01-29T11:45:20.634Z,20.90
2023-01-29T11:50:22.351Z,18.48
2023-01-29T11:55:23.974Z,20.52
2023-01-29T12:00:23.096Z,21.23
2023-01-29T12:05:21.981Z,19.90
2023-01-29T12:10:36.826Z,19.67
2023-01-29T12:15:29.775Z,19.13
2023-01-29T12:20:31.541Z,17.83
2023-01-29T12:25:24.978Z,18.05
2023-01-29T12:30:26.712Z,20.10
2023-01-29T12:35:25.844Z,18.10
2023-01-29T12:40:21.061Z,17.98
2023-01-29T12:45:19.799Z,17.98
2023-01-29T12:50:19.376Z,18.27
2023-01-29T12:55:24.989Z,18.83
2023-01-29T13:00:39.696Z,17.73
2023-01-29T13:05:39.248Z,16.38
2023-01-29T13:15:35.889Z,14.10
2023-01-29T13:20:32.808Z,14.40
2023-01-29T13:25:32.335Z,14.95
2023-01-29T13:35:22.676Z,13.73
2023-01-29T13:40:21.490Z,15.52
2023-01-29T13:45:27.640Z,14.93
2023-01-29T13:50:36.453Z,13.25
2023-01-29T13:55:41.335Z,19.70
2023-01-29T14:00:34.262Z,13.43
2023-01-29T14:05:32.501Z,13.80
2023-01-29T14:10:27.058Z,16.05
2023-01-29T14:15:21.439Z,14.50
2023-01-29T14:20:20.783Z,14.93
2023-01-29T14:25:19.559Z,14.67
2023-01-29T14:35:21.336Z,14.60
2023-01-29T14:40:19.596Z,14.48
2023-01-29T14:45:33.984Z,15.43
2023-01-29T14:50:29.349Z,13.70
2023-01-29T14:55:38.306Z,16.05
2023-01-29T15:00:40.234Z,15.53
2023-01-29T15:05:37.329Z,13.85
2023-01-29T15:10:29.596Z,13.35
2023-01-29T15:15:38.119Z,13.43
2023-01-29T15:20:37.748Z,13.40
2023-01-29T15:25:37.612Z,15.15
2023-01-29T15:30:33.753Z,14.38
2023-01-29T15:35:51.664Z,16.38
2023-01-29T15:41:05.062Z,14.10
2023-01-29T15:46:35.472Z,14.68
2023-01-29T15:51:28.852Z,14.73
2023-01-29T15:56:47.425Z,15.55
2023-01-29T16:01:41.135Z,16.50
2023-01-29T16:06:38.649Z,16.23
2023-01-29T16:11:33.179Z,17.17
2023-01-29T16:16:28.290Z,16.27
2023-01-29T16:21:39.843Z,14.93
2023-01-29T16:26:53.382Z,17.60
2023-01-29T16:31:47.736Z,22.90
2023-01-29T16:36:48.064Z,19.63
2023-01-29T16:41:41.040Z,19.08
2023-01-29T16:46:37.457Z,15.70
2023-01-29T16:51:31.173Z,16.35
2023-01-29T16:56:24.610Z,15.80
2023-01-29T17:01:18.127Z,19.10
2023-01-29T17:06:30.919Z,28.33
2023-01-29T17:11:37.621Z,30.25
2023-01-29T17:16:33.338Z,30.77
2023-01-29T17:21:27.888Z,32.78
2023-01-29T17:26:22.223Z,29.55
2023-01-29T17:31:15.901Z,27.05
2023-01-29T17:36:14.231Z,26.83
2023-01-29T17:41:13.593Z,24.23
2023-01-29T17:46:07.220Z,26.13
2023-01-29T17:51:03.974Z,31.58
2023-01-29T17:55:56.885Z,29.17
2023-01-29T18:00:50.976Z,30.10
2023-01-29T18:05:44.755Z,28.10
2023-01-29T18:10:38.811Z,28.42
2023-01-29T18:15:32.821Z,40.33
2023-01-29T18:20:27.249Z,34.65
2023-01-29T18:25:21.140Z,37.45
2023-01-29T18:30:15.315Z,41.67
2023-01-29T18:35:10.780Z,41.35
2023-01-29T18:40:03.979Z,41.25
2023-01-29T18:44:58.224Z,46.10
2023-01-29T18:49:51.982Z,61.50
2023-01-29T18:54:45.042Z,48.42
2023-01-29T18:59:39.257Z,47.53
2023-01-29T19:04:33.281Z,47.90
2023-01-29T19:09:28.747Z,46.92
2023-01-29T19:14:24.148Z,44.38
2023-01-29T19:19:19.011Z,39.85
2023-01-29T19:24:14.427Z,42.50
2023-01-29T19:29:09.518Z,34.85
2023-01-29T19:34:03.286Z,38.80
2023-01-29T19:38:56.638Z,37.20
2023-01-29T19:43:50.753Z,40.47
2023-01-29T19:48:43.924Z,35.55
2023-01-29T19:53:38.610Z,35.53
2023-01-29T19:58:32.254Z,34.22
2023-01-29T20:03:25.654Z,42.58
2023-01-29T20:08:19.680Z,45.17
2023-01-29T20:13:17.229Z,41.17
2023-01-29T20:18:12.728Z,39.78
2023-01-29T20:23:06.644Z,36.60
2023-01-29T20:27:59.624Z,28.85
2023-01-29T20:32:53.279Z,27.50
2023-01-29T20:37:46.876Z,27.17
2023-01-29T20:42:40.262Z,27.70
2023-01-29T20:47:33.122Z,27.05
2023-01-29T20:52:27.171Z,26.25
2023-01-29T20:57:19.405Z,28.08
2023-01-29T21:02:12.056Z,22.85
2023-01-29T21:07:06.368Z,28.98
2023-01-29T21:12:00.278Z,30.63
2023-01-29T21:16:54.267Z,27.13
2023-01-29T21:21:48.592Z,29.70
2023-01-29T21:26:42.569Z,31.20
2023-01-29T21:31:35.796Z,31.63
2023-01-29T21:36:29.649Z,30.85
2023-01-29T21:41:42.491Z,33.28
2023-01-29T21:46:36.093Z,31.75
2023-01-29T21:51:30.065Z,23.00
2023-01-29T21:56:23.604Z,23.80
2023-01-29T22:01:37.951Z,23.65
2023-01-29T22:06:30.771Z,22.60
2023-01-29T22:11:24.248Z,22.38
2023-01-29T22:16:17.224Z,19.27
2023-01-29T22:21:10.928Z,20.75
2023-01-29T22:26:06.457Z,19.83
2023-01-29T22:31:05.577Z,19.15
2023-01-29T22:35:58.686Z,19.52
2023-01-29T22:40:56.860Z,21.40
2023-01-29T22:45:50.396Z,19.67
2023-01-29T22:50:53.176Z,27.42
2023-01-29T22:55:55.637Z,20.35
2023-01-29T23:01:08.288Z,22.20
2023-01-29T23:06:01.594Z,18.92
2023-01-29T23:10:54.166Z,20.27
2023-01-29T23:15:46.768Z,21.40
2023-01-29T23:20:40.155Z,21.77
2023-01-29T23:25:52.204Z,19.15
2023-01-29T23:30:45.947Z,19.88
2023-01-29T23:35:39.683Z,19.60
2023-01-29T23:40:32.322Z,19.30
2023-01-29T23:45:26.139Z,19.52
2023-01-29T23:50:20.355Z,17.25
2023-01-29T23:55:14.557Z,18.95
